Solicitamos su permiso para obtener datos estadísticos de su navegación en esta web, en cumplimiento del Real Decreto-ley 13/2012. Si continúa navegando consideramos que acepta el uso de cookies. OK | Más información

AIRPORT MAP

METAR AND TAF INFORMATION

METAR FOR LEBB
ADDS - METARS form results

(1729 UTC 21 November 2017)
Data provider http://aviationweather.gov/adds/metars/
 
METAR text: LEBB 211700Z 12002KT CAVOK 13/08 Q1017 NOSIG
Conditions at: LEBB (BILBAO/SONDICA , ES) observed 1700 UTC 21 November 2017
Temperature: 13.0°C (55°F)
Dewpoint: 8.0°C (46°F) [RH = 72%]
Pressure (altimeter): 30.03 inches Hg (1017.0 mb)
Winds: from the ESE (120 degrees) at 2 MPH (2 knots; 1.0 m/s)
Visibility: 6 or more miles (10+ km)
Ceiling: ceiling and visibility are OK
Clouds: unknown
Weather: no significant weather observed at this time

METAR text: LEBB 211630Z 12003KT CAVOK 15/08 Q1017 NOSIG
Conditions at: LEBB (BILBAO/SONDICA , ES) observed 1630 UTC 21 November 2017
Temperature: 15.0°C (59°F)
Dewpoint: 8.0°C (46°F) [RH = 63%]
Pressure (altimeter): 30.03 inches Hg (1017.0 mb)
Winds: from the ESE (120 degrees) at 3 MPH (3 knots; 1.6 m/s)
Visibility: 6 or more miles (10+ km)
Ceiling: ceiling and visibility are OK
Clouds: unknown
Weather: no significant weather observed at this time

Forecast for: LEBB (BILBAO/SONDICA , ES)
Text: TAF LEBB 211700Z 2118/2218 12007KT CAVOK TX21/2214Z TN09/2207Z
Forecast period: 1800 to 2200 UTC 21 November 2017
Forecast type: FROM: standard forecast or significant change
Winds: from the ESE (120 degrees) at 8 MPH (7 knots; 3.6 m/s)
Visibility: 6 or more miles (10+ km)
Clouds: not forecast
Weather: no significant weather forecast for this period
Text: BECMG 2122/2124 18015G25KT
Forecast period: 2200 UTC 21 November 2017 to 1800 UTC 22 November 2017
Forecast type: BECOMING: Conditions expected to become as follows by 0000 UTC 22 November 2017
Winds: from the S (180 degrees) at 17 MPH (15 knots; 7.8 m/s)
gusting to 29 MPH (25 knots; 13.0 m/s)
Visibility: 6 or more miles (10+ km)
Weather: no significant weather forecast for this period

}